createdAt,value
2019-05-19T00:01:15.911Z,70.81
2019-05-19T00:03:41.926Z,71.97
2019-05-19T00:06:08.028Z,71.62
2019-05-19T00:08:34.143Z,71.98
2019-05-19T00:11:00.187Z,71.17
2019-05-19T00:13:26.173Z,70.67
2019-05-19T00:15:52.192Z,70.31
2019-05-19T00:18:18.210Z,70.35
2019-05-19T00:20:44.320Z,70.81
2019-05-19T00:23:10.381Z,70.32
2019-05-19T00:25:36.490Z,70.39
2019-05-19T00:28:02.907Z,72.07
2019-05-19T00:30:29.042Z,71.75
2019-05-19T00:32:54.955Z,70.92
2019-05-19T00:35:21.003Z,70.75
2019-05-19T00:37:47.167Z,71.13
2019-05-19T00:40:13.346Z,70.96
2019-05-19T00:42:39.361Z,70.72
2019-05-19T00:45:06.492Z,70.49
2019-05-19T00:47:32.622Z,70.49
2019-05-19T00:49:58.753Z,71.34
2019-05-19T00:52:24.893Z,72.31
2019-05-19T00:54:51.005Z,72.36
2019-05-19T00:57:17.615Z,71.46
2019-05-19T00:59:44.735Z,71.02
2019-05-19T01:02:10.851Z,71.27
2019-05-19T01:04:36.891Z,70.96
2019-05-19T01:07:03.216Z,70.84
2019-05-19T01:09:29.149Z,71.63
2019-05-19T01:11:55.257Z,71.96
2019-05-19T01:14:21.411Z,72.12
2019-05-19T01:16:47.529Z,71.55
2019-05-19T01:19:13.699Z,71.37
2019-05-19T01:21:40.911Z,71.46
2019-05-19T01:24:07.080Z,72.66
2019-05-19T01:26:33.102Z,73.62
2019-05-19T01:28:59.249Z,74.81
2019-05-19T01:31:25.346Z,73.95
2019-05-19T01:33:51.432Z,73.06
2019-05-19T01:36:17.554Z,72.73
2019-05-19T01:38:43.731Z,72.65
2019-05-19T01:41:09.856Z,72.72
2019-05-19T01:43:35.967Z,73.29
2019-05-19T01:46:02.091Z,73.92
2019-05-19T01:48:28.221Z,74.12
2019-05-19T01:50:54.433Z,73.94
2019-05-19T01:53:20.543Z,73.67
2019-05-19T01:55:46.667Z,73.71
2019-05-19T01:58:12.607Z,74.05
2019-05-19T02:00:38.626Z,74.61
2019-05-19T02:03:04.742Z,74.41
2019-05-19T02:05:30.742Z,74.34
2019-05-19T02:07:56.890Z,74.22
2019-05-19T02:10:22.963Z,74.29
2019-05-19T02:12:49.091Z,74.18
2019-05-19T02:15:15.595Z,74.21
2019-05-19T02:17:41.824Z,74.39
2019-05-19T02:20:09.249Z,74.69
2019-05-19T02:22:35.355Z,74.76
2019-05-19T02:25:01.471Z,74.07
2019-05-19T02:27:27.601Z,74.59
2019-05-19T02:29:53.730Z,75.10
2019-05-19T02:32:19.840Z,75.04
2019-05-19T02:34:45.965Z,75.09
2019-05-19T02:37:11.979Z,74.10
2019-05-19T02:39:38.137Z,73.88
2019-05-19T02:42:04.301Z,73.71
2019-05-19T02:44:32.217Z,74.25
2019-05-19T02:46:59.787Z,73.87
2019-05-19T02:49:28.795Z,73.37
2019-05-19T02:51:57.512Z,73.97
2019-05-19T02:54:24.530Z,73.40
2019-05-19T02:56:51.185Z,73.12
2019-05-19T02:59:19.493Z,73.04
2019-05-19T03:02:02.743Z,72.89
2019-05-19T03:04:28.895Z,73.37
2019-05-19T03:06:55.053Z,72.94
2019-05-19T03:09:21.162Z,72.96
2019-05-19T03:11:47.110Z,72.76
2019-05-19T03:14:13.148Z,72.85
2019-05-19T03:16:39.062Z,73.37
2019-05-19T03:19:05.201Z,73.92
2019-05-19T03:21:31.211Z,73.72
2019-05-19T03:23:57.213Z,73.71
2019-05-19T03:26:23.247Z,74.81
2019-05-19T03:28:49.347Z,75.18
2019-05-19T03:31:20.208Z,74.81
2019-05-19T03:33:50.702Z,74.96
2019-05-19T03:36:16.846Z,75.29
2019-05-19T03:38:42.939Z,75.42
2019-05-19T03:41:09.071Z,74.93
2019-05-19T03:43:35.112Z,74.80
2019-05-19T03:46:01.252Z,74.85
2019-05-19T03:48:27.196Z,75.04
2019-05-19T03:50:53.300Z,75.00
2019-05-19T03:53:19.303Z,74.91
2019-05-19T03:55:45.417Z,74.79
2019-05-19T03:58:11.431Z,74.89
2019-05-19T04:00:37.584Z,75.15
2019-05-19T04:03:03.719Z,75.13
2019-05-19T04:05:29.698Z,75.12
2019-05-19T04:07:55.603Z,75.13
2019-05-19T04:10:21.743Z,75.20
2019-05-19T04:12:47.742Z,75.74
2019-05-19T04:15:14.069Z,76.06
2019-05-19T04:17:40.092Z,76.18
2019-05-19T04:20:06.598Z,76.06
2019-05-19T04:22:32.694Z,75.89
2019-05-19T04:24:58.706Z,75.80
2019-05-19T04:27:24.814Z,75.66
2019-05-19T04:29:50.916Z,75.54
2019-05-19T04:32:16.926Z,75.24
2019-05-19T04:34:42.921Z,74.88
2019-05-19T04:37:09.034Z,74.75
2019-05-19T04:39:35.031Z,74.77
2019-05-19T04:42:01.165Z,74.82
2019-05-19T04:44:27.273Z,74.59
2019-05-19T04:46:53.191Z,74.36
2019-05-19T04:49:19.202Z,74.18
2019-05-19T04:51:45.222Z,74.08
2019-05-19T04:54:11.106Z,73.79
2019-05-19T04:56:37.107Z,73.59
2019-05-19T04:59:03.217Z,73.63
2019-05-19T05:01:29.321Z,73.87
2019-05-19T05:03:55.469Z,73.38
2019-05-19T05:06:21.502Z,73.21
2019-05-19T05:08:47.502Z,72.93
2019-05-19T05:11:13.538Z,72.87
2019-05-19T05:13:39.552Z,72.66
2019-05-19T05:16:05.598Z,72.77
2019-05-19T05:18:31.710Z,72.42
2019-05-19T05:20:57.856Z,72.55
2019-05-19T05:23:23.759Z,72.38
2019-05-19T05:25:49.673Z,72.54
2019-05-19T05:28:15.720Z,72.14
2019-05-19T05:30:41.878Z,72.49
2019-05-19T05:33:07.940Z,71.86
2019-05-19T05:35:34.066Z,71.21
2019-05-19T05:38:00.182Z,71.58
2019-05-19T05:40:26.186Z,71.45
2019-05-19T05:42:52.142Z,71.75
2019-05-19T05:45:18.274Z,71.77
2019-05-19T05:47:44.316Z,71.09
2019-05-19T05:50:10.770Z,70.57
2019-05-19T05:52:38.786Z,70.39
2019-05-19T05:55:04.938Z,70.64
2019-05-19T05:57:31.060Z,70.18
2019-05-19T05:59:56.965Z,69.79
2019-05-19T06:02:23.079Z,69.51
2019-05-19T06:04:49.111Z,68.71
2019-05-19T06:07:15.110Z,68.25
2019-05-19T06:09:41.135Z,68.40
2019-05-19T06:12:07.236Z,68.46
2019-05-19T06:14:33.356Z,68.32
2019-05-19T06:16:59.349Z,67.38
2019-05-19T06:19:25.489Z,67.32
2019-05-19T06:21:51.495Z,66.89
2019-05-19T06:24:17.396Z,66.30
2019-05-19T06:26:43.518Z,65.98
2019-05-19T06:29:10.110Z,64.96
2019-05-19T06:31:36.218Z,64.71
2019-05-19T06:34:02.327Z,64.66
2019-05-19T06:36:28.436Z,63.39
2019-05-19T06:38:54.539Z,63.02
2019-05-19T06:41:20.642Z,62.70
2019-05-19T06:43:46.653Z,62.73
2019-05-19T06:46:12.652Z,62.76
2019-05-19T06:48:38.665Z,61.96
2019-05-19T06:51:04.813Z,61.77
2019-05-19T06:53:30.934Z,61.87
2019-05-19T06:55:57.030Z,60.08
2019-05-19T06:58:23.142Z,60.22
2019-05-19T07:00:49.242Z,60.41
2019-05-19T07:03:15.364Z,59.85
2019-05-19T07:05:41.441Z,59.19
2019-05-19T07:08:07.479Z,59.63
2019-05-19T07:10:33.580Z,59.17
2019-05-19T07:12:59.595Z,59.00
2019-05-19T07:15:25.695Z,57.92
2019-05-19T07:17:51.853Z,57.17
2019-05-19T07:20:17.949Z,56.83
2019-05-19T07:22:43.946Z,57.13
2019-05-19T07:25:09.981Z,55.14
2019-05-19T07:27:36.159Z,54.06
2019-05-19T07:30:04.534Z,54.11
2019-05-19T07:32:30.767Z,53.34
2019-05-19T07:34:57.110Z,52.67
2019-05-19T07:37:23.411Z,50.98
2019-05-19T07:39:49.346Z,51.05
2019-05-19T07:42:15.400Z,50.61
2019-05-19T07:44:41.439Z,49.60
2019-05-19T07:47:07.505Z,48.97
2019-05-19T07:49:33.646Z,48.79
2019-05-19T07:51:59.567Z,48.84
2019-05-19T07:54:26.130Z,48.87
2019-05-19T07:56:52.281Z,48.53
2019-05-19T07:59:18.291Z,47.45
2019-05-19T08:01:44.224Z,47.66
2019-05-19T08:04:10.360Z,47.10
2019-05-19T08:06:36.458Z,46.88
2019-05-19T08:09:05.391Z,46.87
2019-05-19T08:11:31.432Z,48.30
2019-05-19T08:13:57.496Z,47.76
2019-05-19T08:16:23.583Z,46.69
2019-05-19T08:18:49.693Z,46.25
2019-05-19T08:21:15.814Z,45.71
2019-05-19T08:23:41.924Z,46.37
2019-05-19T08:26:08.279Z,45.88
2019-05-19T08:28:34.395Z,45.75
2019-05-19T08:31:00.311Z,45.72
2019-05-19T08:33:26.440Z,45.50
2019-05-19T08:35:52.548Z,45.00
2019-05-19T08:38:18.689Z,44.89
2019-05-19T08:40:44.824Z,45.00
2019-05-19T08:43:11.160Z,45.09
2019-05-19T08:45:37.377Z,44.87
2019-05-19T08:48:03.587Z,45.73
2019-05-19T08:50:29.624Z,44.54
2019-05-19T08:52:55.696Z,44.56
2019-05-19T08:55:21.811Z,44.86
2019-05-19T08:57:48.003Z,45.13
2019-05-19T09:00:14.500Z,43.16
2019-05-19T09:02:40.423Z,43.65
2019-05-19T09:05:06.499Z,43.96
2019-05-19T09:07:32.500Z,42.86
2019-05-19T09:09:58.613Z,42.89
2019-05-19T09:12:24.725Z,42.85
2019-05-19T09:14:50.733Z,41.84
2019-05-19T09:17:16.633Z,42.03
2019-05-19T09:19:42.641Z,41.00
2019-05-19T09:22:08.671Z,40.72
2019-05-19T09:24:37.250Z,40.33
2019-05-19T09:27:02.591Z,41.41
2019-05-19T09:29:28.710Z,41.65
2019-05-19T09:31:54.701Z,41.27
2019-05-19T09:34:20.887Z,41.06
2019-05-19T09:36:46.969Z,40.97
2019-05-19T09:39:13.079Z,40.42
2019-05-19T09:41:38.987Z,40.74
2019-05-19T09:44:05.429Z,40.42
2019-05-19T09:46:31.440Z,40.26
2019-05-19T09:49:16.234Z,40.21
2019-05-19T09:51:42.331Z,39.54
2019-05-19T09:54:08.375Z,39.81
2019-05-19T09:56:34.408Z,38.93
2019-05-19T09:59:00.788Z,38.94
2019-05-19T10:01:27.132Z,38.48
2019-05-19T10:03:53.386Z,38.23
2019-05-19T10:06:19.497Z,38.34
2019-05-19T10:08:48.670Z,39.00
2019-05-19T10:11:23.610Z,38.83
2019-05-19T10:13:49.618Z,39.03
2019-05-19T10:16:15.659Z,39.36
2019-05-19T10:18:41.686Z,40.70
2019-05-19T10:21:07.799Z,40.86
2019-05-19T10:23:33.819Z,40.82
2019-05-19T10:25:59.827Z,40.00
2019-05-19T10:28:25.947Z,39.80
2019-05-19T10:30:51.953Z,39.05
2019-05-19T10:33:17.989Z,38.21
2019-05-19T10:35:44.107Z,39.96
2019-05-19T10:38:10.107Z,39.76
2019-05-19T10:40:36.250Z,40.48
2019-05-19T10:43:02.357Z,40.13
2019-05-19T10:45:28.697Z,39.84
2019-05-19T10:47:54.877Z,40.34
2019-05-19T10:50:20.904Z,40.05
2019-05-19T10:52:46.913Z,40.91
2019-05-19T10:55:13.236Z,42.81
2019-05-19T10:57:39.343Z,47.03
2019-05-19T13:16:20.453Z,43.13
2019-05-19T13:18:46.619Z,43.13
2019-05-19T13:21:12.736Z,43.61
2019-05-19T13:23:38.786Z,41.96
2019-05-19T13:26:05.019Z,42.66
2019-05-19T13:28:31.139Z,41.50
2019-05-19T13:30:57.255Z,41.74
2019-05-19T13:33:23.392Z,41.03
2019-05-19T13:35:49.506Z,40.95
2019-05-19T13:38:15.648Z,40.80
2019-05-19T13:40:41.678Z,40.47
2019-05-19T13:43:07.778Z,40.92
2019-05-19T13:45:33.884Z,41.41
2019-05-19T13:47:59.804Z,41.14
2019-05-19T13:50:25.910Z,42.44
2019-05-19T13:52:52.013Z,42.43
2019-05-19T13:55:18.141Z,42.62
2019-05-19T13:57:44.144Z,42.35
2019-05-19T14:00:10.861Z,42.79
2019-05-19T14:02:37.178Z,42.42
2019-05-19T14:06:26.632Z,42.62
2019-05-19T14:08:52.652Z,42.79
2019-05-19T14:11:18.670Z,44.84
2019-05-19T14:13:44.688Z,45.66
2019-05-19T14:16:10.721Z,44.68
2019-05-19T14:18:37.450Z,45.02
2019-05-19T14:21:03.500Z,44.39
2019-05-19T14:23:29.514Z,44.54
2019-05-19T14:25:55.536Z,45.44
2019-05-19T14:28:21.660Z,45.44
2019-05-19T14:30:47.583Z,43.74
2019-05-19T14:33:13.594Z,43.74
2019-05-19T14:35:39.530Z,41.92
2019-05-19T14:38:05.473Z,41.92
2019-05-19T14:40:31.595Z,42.14
2019-05-19T14:43:01.869Z,42.11
2019-05-19T14:45:28.112Z,41.84
2019-05-19T14:47:54.164Z,41.43
2019-05-19T14:50:20.291Z,42.41
2019-05-19T14:52:46.609Z,42.51
2019-05-19T14:55:12.968Z,42.13
2019-05-19T14:57:44.960Z,42.18
2019-05-19T15:00:08.055Z,42.33
2019-05-19T15:02:34.246Z,42.49
2019-05-19T15:05:00.462Z,41.18
2019-05-19T15:07:26.383Z,41.46
2019-05-19T15:09:54.234Z,41.34
2019-05-19T15:12:20.433Z,41.71
2019-05-19T15:14:46.471Z,41.22
2019-05-19T15:17:12.486Z,40.83
2019-05-19T15:19:38.428Z,41.04
2019-05-19T15:22:04.434Z,40.36
2019-05-19T15:24:30.483Z,39.27
2019-05-19T15:26:56.498Z,39.35
2019-05-19T15:29:22.657Z,39.03
2019-05-19T15:31:48.782Z,39.37
2019-05-19T15:34:14.790Z,40.08
2019-05-19T15:36:40.836Z,40.96
2019-05-19T15:39:07.000Z,40.34
2019-05-19T15:41:33.043Z,40.24
2019-05-19T15:43:59.047Z,40.20
2019-05-19T15:46:25.098Z,40.37
2019-05-19T15:48:51.220Z,41.10
2019-05-19T15:51:27.869Z,40.37
2019-05-19T15:53:45.273Z,40.13
2019-05-19T15:56:11.352Z,39.95
2019-05-19T15:58:37.430Z,40.84
2019-05-19T16:01:20.423Z,41.20
2019-05-19T16:03:46.438Z,40.81
2019-05-19T16:06:12.486Z,41.95
2019-05-19T16:08:38.491Z,41.99
2019-05-19T16:11:12.108Z,41.77
2019-05-19T16:13:38.177Z,42.05
2019-05-19T16:16:04.367Z,42.00
2019-05-19T16:18:34.058Z,42.00
2019-05-19T16:21:08.119Z,42.37
2019-05-19T16:26:32.857Z,41.99
2019-05-19T16:28:58.880Z,41.89
2019-05-19T16:31:25.032Z,40.90
2019-05-19T16:33:51.031Z,41.54
2019-05-19T16:36:16.991Z,41.75
2019-05-19T16:38:43.146Z,41.50
2019-05-19T16:41:09.259Z,42.25
2019-05-19T16:43:35.371Z,42.63
2019-05-19T16:46:01.477Z,42.78
2019-05-19T16:48:27.594Z,43.74
2019-05-19T16:50:53.602Z,43.74
2019-05-19T16:53:19.646Z,43.61
2019-05-19T16:55:45.674Z,43.90
2019-05-19T16:58:20.620Z,45.33
2019-05-19T17:00:39.935Z,46.15
2019-05-19T17:03:06.043Z,47.29
2019-05-19T17:05:32.195Z,47.25
2019-05-19T17:07:58.216Z,47.63
2019-05-19T17:10:24.246Z,47.65
2019-05-19T17:12:50.401Z,47.78
2019-05-19T17:15:16.843Z,47.92
2019-05-19T17:17:42.987Z,48.41
2019-05-19T17:20:09.383Z,49.00
2019-05-19T17:22:35.389Z,49.85
2019-05-19T17:25:01.814Z,49.79
2019-05-19T17:27:27.918Z,49.79
2019-05-19T17:29:53.918Z,50.74
2019-05-19T17:32:20.040Z,51.31
2019-05-19T17:34:46.204Z,51.57
2019-05-19T17:37:12.404Z,52.64
2019-05-19T17:39:38.461Z,53.17
2019-05-19T17:42:04.467Z,53.09
2019-05-19T17:44:30.471Z,53.22
2019-05-19T17:46:56.582Z,54.09
2019-05-19T17:49:22.483Z,53.80
2019-05-19T17:51:48.484Z,54.15
2019-05-19T17:54:14.606Z,54.29
2019-05-19T17:56:41.218Z,54.49
2019-05-19T17:59:16.222Z,54.75
2019-05-19T18:01:35.147Z,54.66
2019-05-19T18:04:01.267Z,54.93
2019-05-19T18:06:29.656Z,55.15
2019-05-19T18:08:55.204Z,55.35
2019-05-19T18:11:21.202Z,55.46
2019-05-19T18:13:47.213Z,55.94
2019-05-19T18:16:13.227Z,56.31
2019-05-19T18:18:39.234Z,56.61
2019-05-19T18:21:05.379Z,56.95
2019-05-19T18:23:31.443Z,57.33
2019-05-19T18:25:57.562Z,57.66
2019-05-19T18:28:23.775Z,58.00
2019-05-19T18:30:49.733Z,58.16
2019-05-19T18:33:15.856Z,58.62
2019-05-19T18:35:41.981Z,59.64
2019-05-19T18:38:07.986Z,59.79
2019-05-19T18:40:34.155Z,59.69
2019-05-19T18:43:00.362Z,59.42
2019-05-19T18:45:26.530Z,59.60
2019-05-19T18:47:52.643Z,59.97
2019-05-19T18:50:18.739Z,60.25
2019-05-19T18:52:44.920Z,60.25
2019-05-19T18:55:11.061Z,60.49
2019-05-19T18:57:37.117Z,60.67
2019-05-19T19:00:05.323Z,60.67
2019-05-19T19:02:31.556Z,60.84
2019-05-19T19:04:57.570Z,61.17
2019-05-19T19:07:25.601Z,61.10
2019-05-19T19:09:51.609Z,61.54
2019-05-19T19:12:17.650Z,61.87
2019-05-19T19:14:43.661Z,61.87
2019-05-19T19:17:09.822Z,62.06
2019-05-19T19:19:36.242Z,62.50
2019-05-19T19:22:02.394Z,62.74
2019-05-19T19:24:28.315Z,62.83
2019-05-19T19:26:54.461Z,63.22
2019-05-19T19:29:20.592Z,63.39
2019-05-19T19:31:48.900Z,63.55
2019-05-19T19:34:14.536Z,63.54
2019-05-19T19:36:40.649Z,64.11
2019-05-19T19:39:06.763Z,64.39
2019-05-19T19:41:34.599Z,64.80
2019-05-19T19:44:00.504Z,64.75
2019-05-19T19:46:26.602Z,64.92
2019-05-19T19:48:52.650Z,64.86
2019-05-19T19:51:18.865Z,65.11
2019-05-19T19:53:45.572Z,65.18
2019-05-19T19:56:11.679Z,65.57
2019-05-19T19:58:37.699Z,66.00
2019-05-19T20:01:03.820Z,65.94
2019-05-19T20:03:29.866Z,65.96
2019-05-19T20:05:55.961Z,66.04
2019-05-19T20:08:21.909Z,66.24
2019-05-19T20:10:48.019Z,66.39
2019-05-19T20:13:14.025Z,66.87
2019-05-19T20:15:40.142Z,67.31
2019-05-19T20:18:06.247Z,67.71
2019-05-19T20:20:32.263Z,67.79
2019-05-19T20:22:58.291Z,67.99
2019-05-19T20:25:24.381Z,68.50
2019-05-19T20:27:50.402Z,68.63
2019-05-19T20:30:16.609Z,69.13
2019-05-19T20:32:42.715Z,69.15
2019-05-19T20:35:08.918Z,69.31
2019-05-19T20:37:34.949Z,69.73
2019-05-19T20:40:01.042Z,70.11
2019-05-19T20:42:27.162Z,70.22
2019-05-19T20:44:53.181Z,70.58
2019-05-19T20:47:19.198Z,70.62
2019-05-19T20:49:45.201Z,70.58
2019-05-19T20:52:12.463Z,70.72
2019-05-19T20:54:38.498Z,70.85
2019-05-19T20:57:04.609Z,70.89
2019-05-19T20:59:30.676Z,71.11
2019-05-19T21:01:56.659Z,71.39
2019-05-19T21:04:22.588Z,71.46
2019-05-19T21:06:48.740Z,71.62
2019-05-19T21:09:16.980Z,71.72
2019-05-19T21:11:43.070Z,72.26
2019-05-19T21:14:09.234Z,72.55
2019-05-19T21:16:35.191Z,72.53
2019-05-19T21:19:01.204Z,72.31
2019-05-19T21:21:27.117Z,72.29
2019-05-19T21:23:53.126Z,72.23
2019-05-19T21:26:19.171Z,72.37
2019-05-19T21:28:45.179Z,72.43
2019-05-19T21:31:11.185Z,73.86
2019-05-19T21:33:37.194Z,74.69
2019-05-19T21:36:03.303Z,75.36
2019-05-19T21:38:29.328Z,76.46
2019-05-19T21:40:55.238Z,75.96
2019-05-19T21:43:21.416Z,76.02
2019-05-19T21:45:47.422Z,75.15
2019-05-19T21:48:14.430Z,75.55
2019-05-19T21:50:40.456Z,74.94
2019-05-19T21:53:06.759Z,75.10
2019-05-19T21:55:33.104Z,75.00
2019-05-19T21:57:59.053Z,74.74
2019-05-19T22:00:27.082Z,74.66
2019-05-19T22:02:53.194Z,74.70
2019-05-19T22:05:19.335Z,75.93
2019-05-19T22:08:02.665Z,75.77
2019-05-19T22:10:28.829Z,75.36
2019-05-19T22:12:54.731Z,75.08
2019-05-19T22:15:20.865Z,75.24
2019-05-19T22:17:46.985Z,75.39
2019-05-19T22:20:13.099Z,76.34
2019-05-19T22:22:39.106Z,76.27
2019-05-19T22:25:06.314Z,75.88
2019-05-19T22:27:32.422Z,75.96
2019-05-19T22:29:58.462Z,75.76
2019-05-19T22:32:24.370Z,76.17
2019-05-19T22:34:50.401Z,76.53
2019-05-19T22:37:16.505Z,76.54
2019-05-19T22:39:42.637Z,76.70
2019-05-19T22:42:08.750Z,77.46
2019-05-19T22:44:34.757Z,77.86
2019-05-19T22:47:00.723Z,77.38
2019-05-19T22:49:26.710Z,76.91
2019-05-19T22:51:52.815Z,76.63
2019-05-19T22:54:18.721Z,76.74
2019-05-19T22:56:44.626Z,76.68
2019-05-19T22:59:19.415Z,77.16
2019-05-19T23:01:51.045Z,77.62
2019-05-19T23:04:06.469Z,77.74
2019-05-19T23:06:32.602Z,77.22
2019-05-19T23:08:58.718Z,76.71
2019-05-19T23:11:24.827Z,77.21
2019-05-19T23:13:50.945Z,77.36
2019-05-19T23:16:17.052Z,77.01
2019-05-19T23:18:43.068Z,77.44
2019-05-19T23:21:09.187Z,77.49
2019-05-19T23:23:35.198Z,76.93
2019-05-19T23:26:01.263Z,76.69
2019-05-19T23:28:27.331Z,76.66
2019-05-19T23:30:53.334Z,76.38
2019-05-19T23:33:19.348Z,76.29
2019-05-19T23:35:45.400Z,76.37
2019-05-19T23:38:11.296Z,76.49
2019-05-19T23:40:37.206Z,76.32
2019-05-19T23:43:03.182Z,76.30
2019-05-19T23:45:29.351Z,77.16
2019-05-19T23:47:55.259Z,77.26
2019-05-19T23:50:21.292Z,76.73
2019-05-19T23:52:47.401Z,76.22
2019-05-19T23:55:13.738Z,75.82
2019-05-19T23:58:17.287Z,75.54
